Time;durP1;ratioP1;P1;durP2;ratioP2;P2;SDS_P1;SDS_P2;PMS_P1;PMS_P2;Temp;Humidity;BMP_temperature;BMP_pressure;BME280_temperature;BME280_humidity;BME280_pressure;Samples;Min_cycle;Max_cycle;Signal;HPM_P1;HPM_P2
2021/08/20 00:00:47;;;;;;;14.30;10.50;;;;;;;;;;5099560;28;20444;-51
2021/08/20 00:03:15;;;;;;;9.07;5.20;;;;;;;;;;5099231;28;20452;-54
2021/08/20 00:05:42;;;;;;;8.53;5.90;;;;;;;;;;5099559;28;20487;-54
2021/08/20 00:08:11;;;;;;;5.17;4.17;;;;;;;;;;5099545;28;20496;-54
2021/08/20 00:10:44;;;;;;;12.83;9.70;;;;;;;;;;5099653;28;20470;-51
2021/08/20 00:13:12;;;;;;;11.90;7.57;;;;;;;;;;5099660;28;20470;-53
2021/08/20 00:15:39;;;;;;;6.07;4.47;;;;;;;;;;5099621;28;20456;-55
2021/08/20 00:18:17;;;;;;;5.90;3.70;;;;;;;;;;5099280;28;20483;-54
2021/08/20 00:20:44;;;;;;;6.67;4.13;;;;;;;;;;5098752;28;20456;-58
2021/08/20 00:23:13;;;;;;;7.13;3.73;;;;;;;;;;5098434;28;20687;-54
2021/08/20 00:25:57;;;;;;;7.90;4.27;;;;;;;;;;5098908;28;20447;-58
2021/08/20 00:28:25;;;;;;;6.70;4.00;;;;;;;;;;5098737;28;20444;-59
2021/08/20 00:30:52;;;;;;;5.13;3.80;;;;;;;;;;5098648;28;20451;-57
2021/08/20 00:33:43;;;;;;;5.60;3.40;;;;;;;;;;5098854;28;20486;-56
2021/08/20 00:36:10;;;;;;;8.63;3.73;;;;;;;;;;5097551;28;20524;-56
2021/08/20 00:38:39;;;;;;;5.27;3.03;;;;;;;;;;5098763;28;20459;-59
2021/08/20 00:41:18;;;;;;;5.03;2.43;;;;;;;;;;5081151;28;20452;-55
2021/08/20 00:43:46;;;;;;;4.63;3.17;;;;;;;;;;5098587;28;20435;-54
2021/08/20 00:46:14;;;;;;;4.60;2.70;;;;;;;;;;5098747;28;20435;-55
2021/08/20 00:48:43;;;;;;;5.20;3.67;;;;;;;;;;5098791;28;20471;-51
2021/08/20 00:51:16;;;;;;;8.17;3.50;;;;;;;;;;5098929;28;20444;-51
2021/08/20 00:53:45;;;;;;;6.20;2.77;;;;;;;;;;5098212;28;20464;-57
2021/08/20 00:56:29;;;;;;;4.43;2.87;;;;;;;;;;5098434;28;20471;-56
2021/08/20 00:58:56;;;;;;;5.63;3.03;;;;;;;;;;5109394;28;20466;-50
2021/08/20 01:01:24;;;;;;;4.03;3.10;;;;;;;;;;5118385;28;20451;-51
2021/08/20 01:03:54;;;;;;;5.33;3.23;;;;;;;;;;5118426;28;20623;-48
2021/08/20 01:06:22;;;;;;;5.50;3.23;;;;;;;;;;5118327;28;20447;-53
2021/08/20 01:08:50;;;;;;;6.50;3.90;;;;;;;;;;5118328;28;20462;-53
2021/08/20 01:11:19;;;;;;;6.90;3.40;;;;;;;;;;5118531;28;20443;-50
2021/08/20 01:13:47;;;;;;;5.93;3.63;;;;;;;;;;5118294;28;20447;-53
2021/08/20 01:16:14;;;;;;;4.70;2.90;;;;;;;;;;5118081;28;20443;-52
2021/08/20 01:18:43;;;;;;;6.07;3.93;;;;;;;;;;5118205;28;20428;-56
2021/08/20 01:21:12;;;;;;;4.60;2.70;;;;;;;;;;5118275;28;20442;-56
2021/08/20 01:23:39;;;;;;;5.53;3.67;;;;;;;;;;5117965;28;20443;-52
2021/08/20 01:26:08;;;;;;;5.63;2.90;;;;;;;;;;5118595;28;20455;-53
2021/08/20 01:28:35;;;;;;;4.73;3.40;;;;;;;;;;5118327;28;20455;-53
2021/08/20 01:31:03;;;;;;;5.90;3.30;;;;;;;;;;5118137;28;20439;-56
2021/08/20 01:33:30;;;;;;;5.80;3.40;;;;;;;;;;5118104;28;20435;-57
2021/08/20 01:36:00;;;;;;;6.10;3.07;;;;;;;;;;5118172;28;20454;-49
2021/08/20 01:38:27;;;;;;;4.10;2.90;;;;;;;;;;5117979;28;20482;-54
2021/08/20 01:40:55;;;;;;;5.47;3.03;;;;;;;;;;5117970;28;20590;-50
2021/08/20 01:43:24;;;;;;;5.50;2.87;;;;;;;;;;5117637;28;20451;-56
2021/08/20 01:45:52;;;;;;;4.93;3.00;;;;;;;;;;5118109;28;20446;-57
2021/08/20 01:48:31;;;;;;;7.23;3.87;;;;;;;;;;5117163;28;20456;-56
2021/08/20 01:50:58;;;;;;;3.73;2.93;;;;;;;;;;5117614;28;20451;-58
2021/08/20 01:53:26;;;;;;;6.20;3.57;;;;;;;;;;5117711;28;20439;-51
2021/08/20 01:55:54;;;;;;;6.47;3.27;;;;;;;;;;5117725;28;20435;-56
2021/08/20 01:58:21;;;;;;;5.63;3.57;;;;;;;;;;5117609;28;20490;-52
2021/08/20 02:00:49;;;;;;;7.60;3.60;;;;;;;;;;5117552;28;20444;-55
2021/08/20 02:03:17;;;;;;;6.20;3.17;;;;;;;;;;5117681;28;20430;-56
2021/08/20 02:05:46;;;;;;;5.80;3.17;;;;;;;;;;5117173;28;20431;-58
2021/08/20 02:08:13;;;;;;;6.93;3.40;;;;;;;;;;5117613;28;21010;-55
2021/08/20 02:10:40;;;;;;;6.87;4.63;;;;;;;;;;5117533;28;20447;-57
2021/08/20 02:13:07;;;;;;;8.23;3.70;;;;;;;;;;5117334;28;20443;-49
2021/08/20 02:15:37;;;;;;;4.77;3.23;;;;;;;;;;5117706;28;20447;-51
2021/08/20 02:18:05;;;;;;;5.13;3.70;;;;;;;;;;5117038;28;20497;-53
2021/08/20 02:20:33;;;;;;;5.33;3.37;;;;;;;;;;5117344;28;20453;-55
2021/08/20 02:23:07;;;;;;;11.30;3.97;;;;;;;;;;5117642;28;20462;-56
2021/08/20 02:25:35;;;;;;;4.90;3.50;;;;;;;;;;5117127;28;20459;-55
2021/08/20 02:28:03;;;;;;;6.97;4.23;;;;;;;;;;5101822;28;20495;-48
2021/08/20 02:30:30;;;;;;;6.37;4.20;;;;;;;;;;5096472;28;20486;-54
2021/08/20 02:32:58;;;;;;;7.53;4.63;;;;;;;;;;5096553;28;20478;-49
2021/08/20 02:35:27;;;;;;;16.80;4.50;;;;;;;;;;5097002;28;20455;-56
2021/08/20 02:37:59;;;;;;;8.07;4.37;;;;;;;;;;5096562;28;20473;-56
2021/08/20 02:40:27;;;;;;;6.43;3.50;;;;;;;;;;5096870;28;20436;-49
2021/08/20 02:42:55;;;;;;;6.37;4.07;;;;;;;;;;5096369;28;20479;-52
2021/08/20 02:45:34;;;;;;;7.60;4.53;;;;;;;;;;5096551;28;20474;-57
2021/08/20 02:48:01;;;;;;;7.87;3.73;;;;;;;;;;5108354;28;20475;-55
2021/08/20 02:50:30;;;;;;;6.10;4.73;;;;;;;;;;5117149;28;20888;-55
2021/08/20 02:53:01;;;;;;;9.27;6.77;;;;;;;;;;5117112;28;20450;-52
2021/08/20 02:55:29;;;;;;;7.07;4.30;;;;;;;;;;5116799;28;20741;-50
2021/08/20 02:57:56;;;;;;;8.00;5.33;;;;;;;;;;5116951;28;20475;-57
2021/08/20 03:00:23;;;;;;;6.70;4.07;;;;;;;;;;5120201;28;20435;-53
2021/08/20 03:02:50;;;;;;;5.90;4.60;;;;;;;;;;5120701;28;20466;-50
2021/08/20 03:05:18;;;;;;;5.63;4.57;;;;;;;;;;5120483;28;20435;-55
2021/08/20 03:07:46;;;;;;;9.87;4.70;;;;;;;;;;5120529;28;20427;-54
2021/08/20 03:10:33;;;;;;;8.40;5.30;;;;;;;;;;5120834;28;20438;-55
2021/08/20 03:13:00;;;;;;;6.70;4.77;;;;;;;;;;5120664;28;20462;-48
2021/08/20 03:15:27;;;;;;;6.80;5.90;;;;;;;;;;5121095;28;20451;-57
2021/08/20 03:17:54;;;;;;;15.70;6.63;;;;;;;;;;5120555;28;20487;-53
2021/08/20 03:20:22;;;;;;;7.43;5.33;;;;;;;;;;5120556;28;20512;-62
2021/08/20 03:23:00;;;;;;;7.80;5.37;;;;;;;;;;5120615;28;20446;-52
2021/08/20 03:25:30;;;;;;;7.13;5.50;;;;;;;;;;5120569;28;20443;-54
2021/08/20 03:27:58;;;;;;;7.17;5.20;;;;;;;;;;5120911;28;20468;-54
2021/08/20 03:31:02;;;;;;;7.47;4.80;;;;;;;;;;5120588;28;20466;-54
2021/08/20 03:33:30;;;;;;;12.50;5.37;;;;;;;;;;5120436;28;20439;-49
2021/08/20 03:36:11;;;;;;;10.90;6.10;;;;;;;;;;5120404;28;20447;-57
2021/08/20 03:38:40;;;;;;;8.23;6.47;;;;;;;;;;5119746;28;20530;-53
2021/08/20 03:41:08;;;;;;;7.97;5.60;;;;;;;;;;5120168;28;20427;-54
2021/08/20 03:43:35;;;;;;;12.10;5.17;;;;;;;;;;5120415;28;20438;-51
2021/08/20 03:46:14;;;;;;;8.70;5.30;;;;;;;;;;5120116;28;20481;-52
2021/08/20 03:48:43;;;;;;;9.40;5.37;;;;;;;;;;5119714;28;20459;-57
2021/08/20 03:51:10;;;;;;;9.13;6.20;;;;;;;;;;5120462;28;20478;-53
2021/08/20 03:53:45;;;;;;;7.53;5.60;;;;;;;;;;5119654;28;20488;-53
2021/08/20 03:56:13;;;;;;;8.57;6.03;;;;;;;;;;5100029;28;20516;-51
2021/08/20 03:58:40;;;;;;;8.50;5.87;;;;;;;;;;5120002;28;20471;-53
2021/08/20 04:01:07;;;;;;;7.87;6.00;;;;;;;;;;5119582;28;20478;-53
2021/08/20 04:03:34;;;;;;;9.53;7.37;;;;;;;;;;5119838;28;20450;-50
2021/08/20 04:06:09;;;;;;;7.63;5.47;;;;;;;;;;5119432;28;20447;-59
2021/08/20 04:08:36;;;;;;;8.67;6.00;;;;;;;;;;5119785;28;20435;-49
2021/08/20 04:11:05;;;;;;;8.47;5.13;;;;;;;;;;5118291;28;20466;-50
2021/08/20 04:13:32;;;;;;;17.97;6.70;;;;;;;;;;5119048;28;20471;-51
2021/08/20 04:16:01;;;;;;;10.20;7.60;;;;;;;;;;5103131;28;20485;-59
2021/08/20 04:18:29;;;;;;;8.70;6.60;;;;;;;;;;5112579;28;20531;-57
2021/08/20 04:20:56;;;;;;;9.23;6.33;;;;;;;;;;5118809;28;20428;-54
2021/08/20 04:23:24;;;;;;;10.20;6.43;;;;;;;;;;5118104;28;20446;-55
2021/08/20 04:25:51;;;;;;;11.83;6.03;;;;;;;;;;5114396;28;20444;-58
2021/08/20 04:28:19;;;;;;;10.80;6.73;;;;;;;;;;5118971;28;20447;-54
2021/08/20 04:30:47;;;;;;;11.37;6.93;;;;;;;;;;5118906;28;20471;-54
2021/08/20 04:33:25;;;;;;;23.17;7.97;;;;;;;;;;5111812;28;20448;-54
2021/08/20 04:35:54;;;;;;;8.90;6.57;;;;;;;;;;5117314;28;20598;-50
2021/08/20 04:38:21;;;;;;;9.37;7.43;;;;;;;;;;5119471;28;20471;-54
2021/08/20 04:40:49;;;;;;;13.70;8.40;;;;;;;;;;5119497;28;20435;-53
2021/08/20 04:43:18;;;;;;;13.20;7.90;;;;;;;;;;5101503;28;20468;-53
2021/08/20 04:45:58;;;;;;;9.03;5.97;;;;;;;;;;5098721;28;20490;-58
2021/08/20 04:48:37;;;;;;;9.40;5.60;;;;;;;;;;5089973;28;20467;-56
2021/08/20 04:51:13;;;;;;;14.70;7.43;;;;;;;;;;5096129;28;20460;-52
2021/08/20 04:53:43;;;;;;;10.40;7.60;;;;;;;;;;5093492;28;20452;-52
2021/08/20 04:56:10;;;;;;;13.10;8.47;;;;;;;;;;5094187;28;20457;-54
2021/08/20 04:58:54;;;;;;;9.90;7.17;;;;;;;;;;5097886;28;20486;-50
2021/08/20 05:01:24;;;;;;;10.53;6.37;;;;;;;;;;5097845;28;20525;-47
2021/08/20 05:03:53;;;;;;;15.03;7.70;;;;;;;;;;5097886;28;20475;-53
2021/08/20 05:06:45;;;;;;;12.03;7.60;;;;;;;;;;5098211;28;20440;-57
2021/08/20 05:09:12;;;;;;;12.77;7.13;;;;;;;;;;5095386;28;20522;-50
2021/08/20 05:11:39;;;;;;;13.33;7.50;;;;;;;;;;5097944;28;20452;-57
2021/08/20 05:14:08;;;;;;;11.40;7.03;;;;;;;;;;5097592;28;20460;-53
2021/08/20 05:16:36;;;;;;;14.53;8.07;;;;;;;;;;5097040;28;20452;-55
2021/08/20 05:19:03;;;;;;;11.30;7.50;;;;;;;;;;5097591;28;20483;-61
2021/08/20 05:21:36;;;;;;;13.00;7.80;;;;;;;;;;5097547;28;20457;-57
2021/08/20 05:24:05;;;;;;;12.20;7.70;;;;;;;;;;5096950;28;20917;-55
2021/08/20 05:26:34;;;;;;;10.40;7.80;;;;;;;;;;5105828;28;20440;-58
2021/08/20 05:29:07;;;;;;;14.77;8.40;;;;;;;;;;5082626;28;20476;-51
2021/08/20 05:31:39;;;;;;;12.63;7.00;;;;;;;;;;5077004;28;20445;-53
2021/08/20 05:34:07;;;;;;;10.63;7.13;;;;;;;;;;5097436;28;20439;-54
2021/08/20 05:36:45;;;;;;;9.00;7.70;;;;;;;;;;5113184;28;20525;-53
2021/08/20 05:39:21;;;;;;;19.00;7.53;;;;;;;;;;5096709;28;20544;-52
2021/08/20 05:41:59;;;;;;;10.20;7.40;;;;;;;;;;5096270;28;20452;-50
2021/08/20 05:44:30;;;;;;;14.53;8.93;;;;;;;;;;5084880;28;20440;-51
2021/08/20 05:47:05;;;;;;;11.50;7.70;;;;;;;;;;5117012;28;20451;-58
2021/08/20 05:49:45;;;;;;;11.17;8.10;;;;;;;;;;5098202;28;20460;-55
2021/08/20 05:52:22;;;;;;;10.57;6.63;;;;;;;;;;5097220;28;20436;-53
2021/08/20 05:54:50;;;;;;;14.03;8.47;;;;;;;;;;5096189;28;20448;-53
2021/08/20 05:57:20;;;;;;;11.40;7.13;;;;;;;;;;5095930;28;20436;-57
2021/08/20 05:59:47;;;;;;;10.10;6.90;;;;;;;;;;5095923;28;20476;-54
2021/08/20 06:02:15;;;;;;;10.53;6.97;;;;;;;;;;5097011;28;20472;-56
2021/08/20 06:04:44;;;;;;;9.20;7.83;;;;;;;;;;5096375;28;20429;-52
2021/08/20 06:07:12;;;;;;;8.17;6.33;;;;;;;;;;5089735;28;20452;-52
2021/08/20 06:09:41;;;;;;;10.50;7.57;;;;;;;;;;5096330;28;20510;-57
2021/08/20 06:12:09;;;;;;;8.40;7.10;;;;;;;;;;5094956;28;20440;-57
2021/08/20 06:14:39;;;;;;;10.17;6.57;;;;;;;;;;5093906;28;20433;-52
2021/08/20 06:17:08;;;;;;;10.67;6.17;;;;;;;;;;5088514;28;20457;-53
2021/08/20 06:19:36;;;;;;;13.50;7.00;;;;;;;;;;5096196;28;20476;-55
2021/08/20 06:22:03;;;;;;;9.03;6.80;;;;;;;;;;5095776;28;20447;-50
2021/08/20 06:24:36;;;;;;;10.70;7.40;;;;;;;;;;5096003;28;20441;-55
2021/08/20 06:27:04;;;;;;;9.67;6.50;;;;;;;;;;5092409;28;20502;-55
2021/08/20 06:29:35;;;;;;;9.80;7.90;;;;;;;;;;5078707;28;20452;-50
2021/08/20 06:32:07;;;;;;;12.30;8.60;;;;;;;;;;5095729;28;20486;-56
2021/08/20 06:34:39;;;;;;;10.67;7.20;;;;;;;;;;5095356;28;20413;-54
2021/08/20 06:37:20;;;;;;;10.33;8.40;;;;;;;;;;5095420;28;20440;-50
2021/08/20 06:39:50;;;;;;;9.80;7.43;;;;;;;;;;5095719;28;20483;-56
2021/08/20 06:42:21;;;;;;;10.83;8.20;;;;;;;;;;5096035;28;20439;-57
2021/08/20 06:44:48;;;;;;;11.57;8.40;;;;;;;;;;5097937;28;20440;-56
2021/08/20 06:47:17;;;;;;;9.90;8.10;;;;;;;;;;5096198;28;20440;-56
2021/08/20 06:49:54;;;;;;;9.97;8.47;;;;;;;;;;5095447;28;20430;-51
2021/08/20 06:52:22;;;;;;;10.13;8.17;;;;;;;;;;5095306;28;20456;-55
2021/08/20 06:54:50;;;;;;;12.77;10.10;;;;;;;;;;5095203;28;20460;-54
2021/08/20 06:57:17;;;;;;;13.07;8.73;;;;;;;;;;5095260;28;20452;-53
2021/08/20 06:59:45;;;;;;;9.77;8.07;;;;;;;;;;5095005;28;20986;-55
2021/08/20 07:02:36;;;;;;;10.97;8.17;;;;;;;;;;5094966;28;20506;-53
2021/08/20 07:05:06;;;;;;;9.20;8.03;;;;;;;;;;5093428;28;20500;-55
2021/08/20 07:07:34;;;;;;;13.00;8.27;;;;;;;;;;5095416;28;20467;-55
2021/08/20 07:10:01;;;;;;;12.00;8.93;;;;;;;;;;5075346;28;20448;-55
2021/08/20 07:12:28;;;;;;;12.33;8.93;;;;;;;;;;5075399;28;20456;-53
2021/08/20 07:15:07;;;;;;;11.07;7.90;;;;;;;;;;5075263;28;20475;-56
2021/08/20 07:17:34;;;;;;;15.83;9.30;;;;;;;;;;5075423;28;20468;-50
2021/08/20 07:20:01;;;;;;;10.77;7.63;;;;;;;;;;5090097;28;20468;-54
2021/08/20 07:22:30;;;;;;;11.10;8.20;;;;;;;;;;5094472;28;20475;-56
2021/08/20 07:24:57;;;;;;;12.33;8.13;;;;;;;;;;5094574;28;20448;-54
2021/08/20 07:27:30;;;;;;;12.13;8.40;;;;;;;;;;5094845;28;20455;-57
2021/08/20 07:29:59;;;;;;;14.50;8.60;;;;;;;;;;5094201;28;20444;-59
2021/08/20 07:32:28;;;;;;;10.20;8.00;;;;;;;;;;5095110;28;20460;-57
2021/08/20 07:34:55;;;;;;;14.67;7.53;;;;;;;;;;5095136;28;20447;-53
2021/08/20 07:37:36;;;;;;;10.30;8.00;;;;;;;;;;5094784;28;20542;-55
2021/08/20 07:40:04;;;;;;;9.90;7.73;;;;;;;;;;5091974;28;20503;-55
2021/08/20 07:42:31;;;;;;;15.37;8.20;;;;;;;;;;5094678;28;20471;-54
2021/08/20 07:44:59;;;;;;;11.83;8.53;;;;;;;;;;5094690;28;20440;-50
2021/08/20 07:47:26;;;;;;;10.43;8.30;;;;;;;;;;5097728;28;20479;-56
2021/08/20 07:50:00;;;;;;;16.40;8.50;;;;;;;;;;5098495;28;20424;-56
2021/08/20 07:52:27;;;;;;;11.27;8.00;;;;;;;;;;5098893;28;20739;-49
2021/08/20 07:54:56;;;;;;;9.90;6.73;;;;;;;;;;5098381;28;20842;-56
2021/08/20 07:57:24;;;;;;;11.30;8.00;;;;;;;;;;5098527;28;20456;-53
2021/08/20 07:59:51;;;;;;;11.30;8.60;;;;;;;;;;5098236;28;20471;-58
2021/08/20 08:02:24;;;;;;;10.20;8.23;;;;;;;;;;5101152;28;20509;-47
2021/08/20 08:04:51;;;;;;;12.10;8.40;;;;;;;;;;5118741;28;20605;-53
2021/08/20 08:07:22;;;;;;;13.93;8.40;;;;;;;;;;5101364;28;20458;-52
2021/08/20 08:09:58;;;;;;;8.83;6.80;;;;;;;;;;5101377;28;20467;-55
2021/08/20 08:12:30;;;;;;;11.10;7.80;;;;;;;;;;5096382;28;20488;-54
2021/08/20 08:14:58;;;;;;;8.90;7.87;;;;;;;;;;5098404;28;20484;-58
2021/08/20 08:17:29;;;;;;;8.87;6.87;;;;;;;;;;5093900;28;20476;-49
2021/08/20 08:19:56;;;;;;;10.50;7.90;;;;;;;;;;5088903;28;20503;-49
2021/08/20 08:22:23;;;;;;;10.97;7.50;;;;;;;;;;5097925;28;20460;-56
2021/08/20 08:28:06;;;;;;;13.27;7.07;;;;;;;;;;5096422;28;20426;-54
2021/08/20 08:30:36;;;;;;;8.37;6.27;;;;;;;;;;5098040;28;20421;-55
2021/08/20 08:33:03;;;;;;;14.23;8.10;;;;;;;;;;5106703;28;20541;-55
2021/08/20 08:35:48;;;;;;;8.77;7.20;;;;;;;;;;5097642;28;20478;-58
2021/08/20 08:38:19;;;;;;;10.40;6.70;;;;;;;;;;5097372;28;20472;-50
2021/08/20 08:40:47;;;;;;;8.97;7.30;;;;;;;;;;5097466;28;20455;-57
2021/08/20 08:43:17;;;;;;;9.40;7.37;;;;;;;;;;5097045;28;20457;-54
2021/08/20 08:45:57;;;;;;;8.17;5.87;;;;;;;;;;5097983;28;20459;-55
2021/08/20 08:48:26;;;;;;;7.53;5.70;;;;;;;;;;5096965;28;20463;-54
2021/08/20 08:50:54;;;;;;;12.00;6.83;;;;;;;;;;5083764;28;20441;-56
2021/08/20 08:53:22;;;;;;;9.30;7.03;;;;;;;;;;5076480;28;20479;-54
2021/08/20 08:55:50;;;;;;;7.70;6.20;;;;;;;;;;5076916;28;20457;-57
2021/08/20 08:58:36;;;;;;;6.90;5.30;;;;;;;;;;5075988;28;20461;-53
2021/08/20 09:01:26;;;;;;;8.43;5.40;;;;;;;;;;5081518;28;20476;-54
2021/08/20 09:06:57;;;;;;;8.83;5.90;;;;;;;;;;5097450;28;20482;-56
2021/08/20 09:09:25;;;;;;;8.77;5.77;;;;;;;;;;5095789;28;20516;-58
2021/08/20 09:11:59;;;;;;;7.30;5.10;;;;;;;;;;5095878;28;20494;-56
2021/08/20 09:14:36;;;;;;;8.57;6.70;;;;;;;;;;5095660;28;20421;-52
2021/08/20 09:17:08;;;;;;;6.90;5.97;;;;;;;;;;5095423;28;20441;-54
2021/08/20 09:19:35;;;;;;;6.80;5.00;;;;;;;;;;5093196;28;20514;-50
2021/08/20 09:22:13;;;;;;;8.57;5.83;;;;;;;;;;5093869;28;20444;-53
2021/08/20 09:25:10;;;;;;;7.17;5.60;;;;;;;;;;5093204;28;20455;-55
2021/08/20 09:27:38;;;;;;;12.00;5.70;;;;;;;;;;5108087;28;20471;-53
2021/08/20 09:30:10;;;;;;;8.30;6.00;;;;;;;;;;5114245;28;20483;-57
2021/08/20 09:33:13;;;;;;;9.27;7.20;;;;;;;;;;5113872;28;20510;-55
2021/08/20 09:35:41;;;;;;;7.47;5.77;;;;;;;;;;5094866;28;20534;-54
2021/08/20 09:38:10;;;;;;;10.20;7.30;;;;;;;;;;5113987;28;20475;-52
2021/08/20 09:40:38;;;;;;;9.03;6.73;;;;;;;;;;5113311;28;20487;-57
2021/08/20 09:43:18;;;;;;;11.10;7.70;;;;;;;;;;5113963;28;20467;-59
2021/08/20 09:45:56;;;;;;;9.10;7.37;;;;;;;;;;5110810;28;20470;-57
2021/08/20 09:48:40;;;;;;;10.23;9.03;;;;;;;;;;5114441;28;20443;-57
2021/08/20 09:51:34;;;;;;;9.97;8.70;;;;;;;;;;5114824;28;20447;-59
2021/08/20 09:54:02;;;;;;;9.70;7.80;;;;;;;;;;5113813;28;20478;-54
2021/08/20 09:56:31;;;;;;;8.60;7.57;;;;;;;;;;5113874;28;20463;-51
2021/08/20 09:58:59;;;;;;;10.20;7.80;;;;;;;;;;5112487;28;20477;-54
2021/08/20 10:01:30;;;;;;;7.70;6.33;;;;;;;;;;5113296;28;20467;-56
2021/08/20 10:04:07;;;;;;;7.00;6.30;;;;;;;;;;5112026;28;20462;-54
2021/08/20 10:06:41;;;;;;;10.97;7.10;;;;;;;;;;5112923;28;20469;-52
2021/08/20 10:09:11;;;;;;;8.63;5.83;;;;;;;;;;5112766;28;20461;-59
2021/08/20 10:11:41;;;;;;;7.67;5.33;;;;;;;;;;5113645;28;20440;-57
2021/08/20 10:14:10;;;;;;;6.60;4.87;;;;;;;;;;5113320;28;20458;-54
2021/08/20 10:16:39;;;;;;;5.20;4.67;;;;;;;;;;5113197;28;20459;-54
2021/08/20 10:19:20;;;;;;;5.40;4.30;;;;;;;;;;5112232;28;20523;-50
2021/08/20 10:21:47;;;;;;;4.57;2.80;;;;;;;;;;5112070;28;20516;-54
2021/08/20 10:24:19;;;;;;;4.83;3.30;;;;;;;;;;5113497;28;20473;-55
2021/08/20 10:30:00;;;;;;;8.00;3.57;;;;;;;;;;5100239;28;20448;-57
2021/08/20 10:32:34;;;;;;;5.63;3.70;;;;;;;;;;5105424;28;20469;-54
2021/08/20 10:35:02;;;;;;;18.10;16.13;;;;;;;;;;5111445;28;20473;-55
2021/08/20 10:40:26;;;;;;;8.03;4.30;;;;;;;;;;5112015;28;20479;-49
2021/08/20 10:42:54;;;;;;;5.77;5.17;;;;;;;;;;5114960;28;20804;-54
2021/08/20 10:45:38;;;;;;;5.37;4.30;;;;;;;;;;5115837;28;20443;-55
2021/08/20 10:48:33;;;;;;;6.13;5.10;;;;;;;;;;5103004;28;20447;-54
2021/08/20 10:51:06;;;;;;;5.53;4.03;;;;;;;;;;5104546;28;20494;-53
2021/08/20 10:53:51;;;;;;;5.30;3.40;;;;;;;;;;5113695;28;20470;-52
2021/08/20 10:56:32;;;;;;;5.70;3.60;;;;;;;;;;5093803;28;20556;-51
2021/08/20 10:59:01;;;;;;;3.23;2.30;;;;;;;;;;5094955;28;20444;-58
2021/08/20 11:01:50;;;;;;;4.80;2.47;;;;;;;;;;5094578;28;20537;-56
2021/08/20 11:04:36;;;;;;;5.20;2.33;;;;;;;;;;5108126;28;20486;-56
2021/08/20 11:07:31;;;;;;;8.27;3.10;;;;;;;;;;5114461;28;20451;-52
2021/08/20 11:10:00;;;;;;;4.47;3.33;;;;;;;;;;5113805;28;20455;-58
2021/08/20 11:12:48;;;;;;;3.77;1.97;;;;;;;;;;5115398;28;20455;-53
2021/08/20 11:21:44;;;;;;;4.03;2.43;;;;;;;;;;5118734;28;20479;-54
2021/08/20 11:24:14;;;;;;;5.43;4.33;;;;;;;;;;5119643;28;20459;-52
2021/08/20 11:27:12;;;;;;;5.53;2.47;;;;;;;;;;5119193;28;20445;-52
2021/08/20 11:29:50;;;;;;;5.43;3.80;;;;;;;;;;5089377;28;20431;-60
2021/08/20 11:32:20;;;;;;;5.60;3.27;;;;;;;;;;5118390;28;20518;-57
2021/08/20 11:34:52;;;;;;;4.57;2.40;;;;;;;;;;5117987;28;20491;-58
2021/08/20 11:37:19;;;;;;;4.60;3.40;;;;;;;;;;5118720;28;20951;-58
2021/08/20 11:40:04;;;;;;;2.83;1.27;;;;;;;;;;5103771;28;20737;-57
2021/08/20 11:42:31;;;;;;;5.97;3.40;;;;;;;;;;5118655;28;20442;-53
2021/08/20 11:45:18;;;;;;;3.60;2.60;;;;;;;;;;5118406;28;20461;-56
2021/08/20 11:51:43;;;;;;;5.37;2.80;;;;;;;;;;5114801;28;20454;-56
2021/08/20 11:54:17;;;;;;;4.10;2.60;;;;;;;;;;5117233;28;20522;-56
2021/08/20 11:57:01;;;;;;;3.73;2.20;;;;;;;;;;5117187;28;20482;-52
2021/08/20 11:59:30;;;;;;;6.63;3.20;;;;;;;;;;5112953;28;20463;-55
2021/08/20 12:02:01;;;;;;;7.10;3.53;;;;;;;;;;5115054;28;20486;-56
2021/08/20 12:04:38;;;;;;;5.13;2.23;;;;;;;;;;5116422;28;20497;-57
2021/08/20 12:07:06;;;;;;;4.50;3.17;;;;;;;;;;5115129;28;20462;-59
2021/08/20 12:09:36;;;;;;;4.13;2.13;;;;;;;;;;5116119;28;20439;-58
2021/08/20 12:12:04;;;;;;;7.80;2.63;;;;;;;;;;5115769;28;20472;-57
2021/08/20 12:14:33;;;;;;;5.10;2.87;;;;;;;;;;5116815;28;20466;-56
2021/08/20 12:17:03;;;;;;;3.90;2.13;;;;;;;;;;5117263;28;20473;-58
2021/08/20 12:19:31;;;;;;;4.97;3.40;;;;;;;;;;5115087;28;20451;-51
2021/08/20 12:22:07;;;;;;;13.60;6.10;;;;;;;;;;5115512;28;20486;-58
2021/08/20 12:24:37;;;;;;;5.30;3.23;;;;;;;;;;5114157;28;20442;-57
2021/08/20 12:27:14;;;;;;;3.70;2.23;;;;;;;;;;5114860;28;20459;-51
2021/08/20 12:29:42;;;;;;;6.03;2.27;;;;;;;;;;5116174;28;20451;-57
2021/08/20 12:32:09;;;;;;;5.10;2.10;;;;;;;;;;5115395;28;20463;-55
2021/08/20 12:34:37;;;;;;;2.70;1.60;;;;;;;;;;5116048;28;20719;-56
2021/08/20 12:37:06;;;;;;;7.40;3.40;;;;;;;;;;5107771;28;20517;-56
2021/08/20 12:39:34;;;;;;;4.80;1.80;;;;;;;;;;5100786;28;20481;-55
2021/08/20 12:42:16;;;;;;;7.53;2.30;;;;;;;;;;5114641;28;20447;-56
2021/08/20 12:44:45;;;;;;;5.23;2.30;;;;;;;;;;5114493;28;20439;-55
2021/08/20 12:47:17;;;;;;;7.30;2.13;;;;;;;;;;5113368;28;20455;-57
2021/08/20 12:49:59;;;;;;;3.93;2.10;;;;;;;;;;5112435;28;20493;-49
2021/08/20 12:52:27;;;;;;;3.97;2.00;;;;;;;;;;5112007;28;20473;-54
2021/08/20 12:55:04;;;;;;;5.97;2.40;;;;;;;;;;5113429;28;20447;-53
2021/08/20 12:57:33;;;;;;;4.20;2.20;;;;;;;;;;5111474;28;20447;-53
2021/08/20 13:00:10;;;;;;;3.30;2.30;;;;;;;;;;5112675;28;20552;-55
2021/08/20 13:02:39;;;;;;;4.87;2.27;;;;;;;;;;5113163;28;20636;-56
2021/08/20 13:08:23;;;;;;;4.30;1.70;;;;;;;;;;5095623;28;20492;-51
2021/08/20 13:10:52;;;;;;;5.20;1.67;;;;;;;;;;5093495;28;20537;-53
2021/08/20 13:13:30;;;;;;;5.20;1.97;;;;;;;;;;5107275;28;20553;-55
2021/08/20 13:16:01;;;;;;;2.70;1.30;;;;;;;;;;5094855;28;20506;-53
2021/08/20 13:18:29;;;;;;;4.30;2.43;;;;;;;;;;5087851;28;20452;-56
2021/08/20 13:20:57;;;;;;;5.93;2.40;;;;;;;;;;5092639;28;20494;-54
2021/08/20 13:23:28;;;;;;;5.30;2.40;;;;;;;;;;5091785;28;20681;-53
2021/08/20 13:26:11;;;;;;;3.40;1.97;;;;;;;;;;5089015;28;20468;-53
2021/08/20 13:28:48;;;;;;;3.50;2.03;;;;;;;;;;5074496;28;20433;-55
2021/08/20 13:31:17;;;;;;;3.20;1.50;;;;;;;;;;5086607;28;20460;-54
2021/08/20 13:33:54;;;;;;;3.73;2.60;;;;;;;;;;5093742;28;20467;-55
2021/08/20 13:36:53;;;;;;;4.20;2.33;;;;;;;;;;5094497;28;20510;-57
2021/08/20 13:39:21;;;;;;;3.17;1.87;;;;;;;;;;5091639;28;20459;-58
2021/08/20 13:42:00;;;;;;;5.13;2.57;;;;;;;;;;5090272;28;20522;-54
2021/08/20 13:44:28;;;;;;;3.90;2.00;;;;;;;;;;5081300;28;20496;-49
2021/08/20 13:46:58;;;;;;;7.33;2.33;;;;;;;;;;5089208;28;20485;-54
2021/08/20 13:49:43;;;;;;;4.60;2.10;;;;;;;;;;5091239;28;20460;-59
2021/08/20 13:52:10;;;;;;;4.10;1.97;;;;;;;;;;5091142;28;20456;-52
2021/08/20 13:57:32;;;;;;;5.07;2.33;;;;;;;;;;5089925;28;20515;-56
2021/08/20 14:00:06;;;;;;;3.60;2.00;;;;;;;;;;5072480;28;20471;-56
2021/08/20 14:02:41;;;;;;;6.20;2.83;;;;;;;;;;5090425;28;20491;-56
2021/08/20 14:05:18;;;;;;;2.97;1.97;;;;;;;;;;5093734;28;20455;-56
2021/08/20 14:07:48;;;;;;;5.97;3.30;;;;;;;;;;5093654;28;20463;-56
2021/08/20 14:10:16;;;;;;;5.00;2.50;;;;;;;;;;5081790;28;20538;-53
2021/08/20 14:12:53;;;;;;;8.20;2.87;;;;;;;;;;5084057;28;20450;-54
2021/08/20 14:15:27;;;;;;;8.13;2.33;;;;;;;;;;5092639;28;20444;-55
2021/08/20 14:17:59;;;;;;;3.50;1.90;;;;;;;;;;5093921;28;20436;-56
2021/08/20 14:24:16;;;;;;;4.07;2.37;;;;;;;;;;5094017;28;20436;-58
2021/08/20 14:29:43;;;;;;;10.40;2.20;;;;;;;;;;5087111;28;20459;-55
2021/08/20 14:34:59;;;;;;;4.40;2.10;;;;;;;;;;5092666;28;20451;-54
2021/08/20 14:37:51;;;;;;;3.13;1.80;;;;;;;;;;5090407;28;20500;-56
2021/08/20 14:40:18;;;;;;;7.40;2.10;;;;;;;;;;5092639;28;20480;-53
2021/08/20 14:42:46;;;;;;;4.37;2.30;;;;;;;;;;5091594;28;20657;-51
2021/08/20 14:45:14;;;;;;;4.70;3.00;;;;;;;;;;5110591;28;20473;-58
2021/08/20 14:47:48;;;;;;;3.53;2.17;;;;;;;;;;5112857;28;20458;-57
2021/08/20 14:50:18;;;;;;;5.30;2.40;;;;;;;;;;5103645;28;20462;-56
2021/08/20 14:52:50;;;;;;;3.33;2.20;;;;;;;;;;5093701;28;20464;-54
2021/08/20 14:55:19;;;;;;;4.40;2.27;;;;;;;;;;5082440;28;20452;-60
2021/08/20 14:57:47;;;;;;;3.57;2.57;;;;;;;;;;5076972;28;20483;-58
2021/08/20 15:00:37;;;;;;;5.70;2.70;;;;;;;;;;5077180;28;20433;-60
2021/08/20 15:03:08;;;;;;;7.70;3.30;;;;;;;;;;5077550;28;20457;-53
2021/08/20 15:06:13;;;;;;;6.23;3.20;;;;;;;;;;5087814;28;20436;-51
2021/08/20 15:08:54;;;;;;;4.73;2.27;;;;;;;;;;5096573;28;20570;-50
2021/08/20 15:11:32;;;;;;;4.00;2.40;;;;;;;;;;5098228;28;20436;-54
2021/08/20 15:14:06;;;;;;;4.40;2.27;;;;;;;;;;5098641;28;20531;-58
2021/08/20 15:16:33;;;;;;;3.53;2.10;;;;;;;;;;5097746;28;20512;-54
2021/08/20 15:19:05;;;;;;;5.80;2.83;;;;;;;;;;5097981;28;20483;-55
2021/08/20 15:21:33;;;;;;;7.27;3.53;;;;;;;;;;5097248;28;20456;-57
2021/08/20 15:24:20;;;;;;;4.03;2.30;;;;;;;;;;5097616;28;20562;-52
2021/08/20 15:26:48;;;;;;;4.50;2.53;;;;;;;;;;5097918;28;20464;-55
2021/08/20 15:29:24;;;;;;;4.03;2.43;;;;;;;;;;5097723;28;20492;-55
2021/08/20 15:31:51;;;;;;;4.10;2.20;;;;;;;;;;5098135;28;20457;-54
2021/08/20 15:34:25;;;;;;;4.80;2.13;;;;;;;;;;5099101;28;20436;-54
2021/08/20 15:36:55;;;;;;;4.30;2.73;;;;;;;;;;5083127;28;20453;-58
2021/08/20 15:39:30;;;;;;;3.20;1.90;;;;;;;;;;5078719;28;20445;-60
2021/08/20 15:42:23;;;;;;;6.43;3.40;;;;;;;;;;5079111;28;20476;-53
2021/08/20 15:44:52;;;;;;;7.10;3.23;;;;;;;;;;5078641;28;20484;-57